sensor_id;sensor_type;location;lat;lon;timestamp;pressure;altitude;pressure_sealevel;temperature;humidity
69751;BME280;57335;52.288;6.056;2022-09-16T00:00:47;100991.31;;;11.14;96.12
69751;BME280;57335;52.288;6.056;2022-09-16T00:03:15;100993.97;;;11.07;97.75
69751;BME280;57335;52.288;6.056;2022-09-16T00:05:47;100999.19;;;11.14;98.00
69751;BME280;57335;52.288;6.056;2022-09-16T00:08:14;100983.66;;;11.06;98.47
69751;BME280;57335;52.288;6.056;2022-09-16T00:10:41;100998.59;;;11.18;98.68
69751;BME280;57335;52.288;6.056;2022-09-16T00:13:08;101005.84;;;11.23;98.39
69751;BME280;57335;52.288;6.056;2022-09-16T00:15:34;100998.56;;;11.25;98.24
69751;BME280;57335;52.288;6.056;2022-09-16T00:18:01;100999.16;;;11.27;98.26
69751;BME280;57335;52.288;6.056;2022-09-16T00:20:28;100986.66;;;11.23;99.02
69751;BME280;57335;52.288;6.056;2022-09-16T00:22:54;100994.91;;;11.33;98.52
69751;BME280;57335;52.288;6.056;2022-09-16T00:25:20;101006.59;;;11.37;98.83
69751;BME280;57335;52.288;6.056;2022-09-16T00:27:47;100999.31;;;11.39;98.42
69751;BME280;57335;52.288;6.056;2022-09-16T00:30:14;100986.81;;;11.34;98.85
69751;BME280;57335;52.288;6.056;2022-09-16T00:32:40;100979.38;;;11.31;98.40
69751;BME280;57335;52.288;6.056;2022-09-16T00:35:07;100999.72;;;11.43;97.96
69751;BME280;57335;52.288;6.056;2022-09-16T00:37:33;100992.84;;;11.42;97.71
69751;BME280;57335;52.288;6.056;2022-09-16T00:40:00;101002.53;;;11.48;97.70
69751;BME280;57335;52.288;6.056;2022-09-16T00:42:26;101002.94;;;11.45;97.73
69751;BME280;57335;52.288;6.056;2022-09-16T00:45:01;100998.91;;;11.49;97.47
69751;BME280;57335;52.288;6.056;2022-09-16T00:47:29;100982.34;;;11.42;98.36
69751;BME280;57335;52.288;6.056;2022-09-16T00:50:02;100983.16;;;11.42;98.35
69751;BME280;57335;52.288;6.056;2022-09-16T00:52:29;100989.59;;;11.46;97.71
69751;BME280;57335;52.288;6.056;2022-09-16T00:54:57;100978.94;;;11.41;97.60
69751;BME280;57335;52.288;6.056;2022-09-16T00:57:24;100989.81;;;11.45;97.13
69751;BME280;57335;52.288;6.056;2022-09-16T00:59:53;100979.53;;;11.36;97.46
69751;BME280;57335;52.288;6.056;2022-09-16T01:02:22;100981.56;;;11.34;96.87
69751;BME280;57335;52.288;6.056;2022-09-16T01:05:21;100977.34;;;11.33;96.83
69751;BME280;57335;52.288;6.056;2022-09-16T01:07:50;100988.44;;;11.35;96.54
69751;BME280;57335;52.288;6.056;2022-09-16T01:10:21;100986.22;;;11.32;96.66
69751;BME280;57335;52.288;6.056;2022-09-16T01:12:51;100986.03;;;11.27;96.61
69751;BME280;57335;52.288;6.056;2022-09-16T01:15:21;100997.13;;;11.29;96.54
69751;BME280;57335;52.288;6.056;2022-09-16T01:17:54;101006.59;;;11.30;96.63
69751;BME280;57335;52.288;6.056;2022-09-16T01:20:59;101006.59;;;11.30;97.37
69751;BME280;57335;52.288;6.056;2022-09-16T01:23:46;101022.75;;;11.34;97.67
69751;BME280;57335;52.288;6.056;2022-09-16T01:34:19;101016.06;;;11.38;99.41
69751;BME280;57335;52.288;6.056;2022-09-16T01:37:07;101024.94;;;11.44;99.42
69751;BME280;57335;52.288;6.056;2022-09-16T01:42:37;101012.63;;;11.51;99.33
69751;BME280;57335;52.288;6.056;2022-09-16T01:45:06;101013.81;;;11.55;98.76
69751;BME280;57335;52.288;6.056;2022-09-16T01:50:26;101005.31;;;11.60;99.25
69751;BME280;57335;52.288;6.056;2022-09-16T01:53:06;100998.66;;;11.57;99.61
69751;BME280;57335;52.288;6.056;2022-09-16T01:56:02;100994.81;;;11.60;98.66
69751;BME280;57335;52.288;6.056;2022-09-16T01:58:30;100988.72;;;11.66;98.26
69751;BME280;57335;52.288;6.056;2022-09-16T02:01:26;100987.91;;;11.65;97.97
69751;BME280;57335;52.288;6.056;2022-09-16T02:03:56;100991.34;;;11.66;97.85
69751;BME280;57335;52.288;6.056;2022-09-16T02:06:26;100979.84;;;11.60;97.28
69751;BME280;57335;52.288;6.056;2022-09-16T02:08:57;100987.13;;;11.65;97.06
69751;BME280;57335;52.288;6.056;2022-09-16T02:11:25;100978.84;;;11.61;97.02
69751;BME280;57335;52.288;6.056;2022-09-16T02:14:19;100981.47;;;11.61;97.05
69751;BME280;57335;52.288;6.056;2022-09-16T02:16:55;100987.13;;;11.58;97.16
69751;BME280;57335;52.288;6.056;2022-09-16T02:20:15;100981.47;;;11.54;97.45
69751;BME280;57335;52.288;6.056;2022-09-16T02:22:19;100979.09;;;11.46;97.02
69751;BME280;57335;52.288;6.056;2022-09-16T02:24:48;100988.16;;;11.50;97.07
69751;BME280;57335;52.288;6.056;2022-09-16T02:27:19;100985.53;;;11.50;97.03
69751;BME280;57335;52.288;6.056;2022-09-16T02:29:50;100979.72;;;11.42;97.27
69751;BME280;57335;52.288;6.056;2022-09-16T02:32:19;100984.34;;;11.46;97.10
69751;BME280;57335;52.288;6.056;2022-09-16T02:34:50;100988.41;;;11.42;96.75
69751;BME280;57335;52.288;6.056;2022-09-16T02:37:23;100983.19;;;11.35;96.76
69751;BME280;57335;52.288;6.056;2022-09-16T02:39:54;100968.28;;;11.29;97.31
69751;BME280;57335;52.288;6.056;2022-09-16T02:42:22;100969.50;;;11.27;97.29
69751;BME280;57335;52.288;6.056;2022-09-16T02:44:48;100995.06;;;11.38;97.04
69751;BME280;57335;52.288;6.056;2022-09-16T02:48:30;100996.31;;;11.35;97.30
69751;BME280;57335;52.288;6.056;2022-09-16T02:50:46;100991.25;;;11.34;97.06
69751;BME280;57335;52.288;6.056;2022-09-16T02:53:35;100998.94;;;11.35;97.47
69751;BME280;57335;52.288;6.056;2022-09-16T02:56:14;101003.59;;;11.20;99.31
69751;BME280;57335;52.288;6.056;2022-09-16T02:58:43;101012.91;;;11.16;100.00
69751;BME280;57335;52.288;6.056;2022-09-16T03:01:10;101013.53;;;11.11;100.00
69751;BME280;57335;52.288;6.056;2022-09-16T03:03:39;101013.53;;;11.11;100.00
69751;BME280;57335;52.288;6.056;2022-09-16T03:06:14;100992.16;;;11.01;100.00
69751;BME280;57335;52.288;6.056;2022-09-16T03:08:41;101003.22;;;11.10;100.00
69751;BME280;57335;52.288;6.056;2022-09-16T03:17:12;100981.63;;;11.14;100.00
69751;BME280;57335;52.288;6.056;2022-09-16T03:19:58;100990.13;;;11.16;100.00
69751;BME280;57335;52.288;6.056;2022-09-16T03:30:43;100986.06;;;11.21;98.39
69751;BME280;57335;52.288;6.056;2022-09-16T03:33:23;100994.13;;;11.26;98.32
69751;BME280;57335;52.288;6.056;2022-09-16T03:35:56;100983.81;;;11.24;98.40
69751;BME280;57335;52.288;6.056;2022-09-16T03:38:26;100969.94;;;11.17;98.86
69751;BME280;57335;52.288;6.056;2022-09-16T03:40:52;100975.56;;;11.27;98.66
69751;BME280;57335;52.288;6.056;2022-09-16T03:43:19;100974.56;;;11.22;98.44
69751;BME280;57335;52.288;6.056;2022-09-16T03:45:45;100979.00;;;11.21;98.11
69751;BME280;57335;52.288;6.056;2022-09-16T03:48:12;100988.88;;;11.26;98.00
69751;BME280;57335;52.288;6.056;2022-09-16T03:50:38;100990.69;;;11.25;97.78
69751;BME280;57335;52.288;6.056;2022-09-16T03:53:05;100973.56;;;11.16;98.03
69751;BME280;57335;52.288;6.056;2022-09-16T03:55:31;100977.59;;;11.18;98.89
69751;BME280;57335;52.288;6.056;2022-09-16T03:57:57;100975.19;;;11.17;98.78
69751;BME280;57335;52.288;6.056;2022-09-16T04:00:24;100981.44;;;11.23;98.86
69751;BME280;57335;52.288;6.056;2022-09-16T04:02:50;100971.53;;;11.18;98.14
69751;BME280;57335;52.288;6.056;2022-09-16T04:05:17;100975.19;;;11.17;97.89
69751;BME280;57335;52.288;6.056;2022-09-16T04:07:43;100966.13;;;11.13;97.65
69751;BME280;57335;52.288;6.056;2022-09-16T04:10:09;100978.00;;;11.15;97.74
69751;BME280;57335;52.288;6.056;2022-09-16T04:12:36;100983.88;;;11.11;97.40
69751;BME280;57335;52.288;6.056;2022-09-16T04:15:02;100974.00;;;11.00;97.75
69751;BME280;57335;52.288;6.056;2022-09-16T04:17:32;100983.69;;;10.99;97.39
69751;BME280;57335;52.288;6.056;2022-09-16T04:19:59;100976.00;;;11.04;97.49
69751;BME280;57335;52.288;6.056;2022-09-16T04:22:29;100966.34;;;10.98;97.78
69751;BME280;57335;52.288;6.056;2022-09-16T04:24:55;100987.91;;;11.07;97.61
69751;BME280;57335;52.288;6.056;2022-09-16T04:27:22;100995.78;;;11.07;98.52
69751;BME280;57335;52.288;6.056;2022-09-16T04:29:48;100995.19;;;10.98;100.00
69751;BME280;57335;52.288;6.056;2022-09-16T04:32:15;101005.06;;;10.96;100.00
69751;BME280;57335;52.288;6.056;2022-09-16T04:34:41;101012.97;;;10.89;100.00
69751;BME280;57335;52.288;6.056;2022-09-16T04:37:07;101006.09;;;10.95;100.00
69751;BME280;57335;52.288;6.056;2022-09-16T04:39:34;100981.06;;;10.92;100.00
69751;BME280;57335;52.288;6.056;2022-09-16T04:42:00;100986.72;;;10.96;100.00
69751;BME280;57335;52.288;6.056;2022-09-16T04:44:26;100991.31;;;11.14;100.00
69751;BME280;57335;52.288;6.056;2022-09-16T04:46:53;100997.75;;;11.18;100.00
69751;BME280;57335;52.288;6.056;2022-09-16T04:49:19;100991.53;;;11.19;99.46
69751;BME280;57335;52.288;6.056;2022-09-16T04:51:45;101002.00;;;11.12;98.62
69751;BME280;57335;52.288;6.056;2022-09-16T04:54:12;100984.28;;;11.01;98.35
69751;BME280;57335;52.288;6.056;2022-09-16T04:56:38;101006.88;;;11.09;98.50
69751;BME280;57335;52.288;6.056;2022-09-16T04:59:05;100994.78;;;11.01;98.03
69751;BME280;57335;52.288;6.056;2022-09-16T05:01:34;101005.69;;;11.05;98.87
69751;BME280;57335;52.288;6.056;2022-09-16T05:04:03;101001.03;;;11.00;99.31
69751;BME280;57335;52.288;6.056;2022-09-16T05:06:33;100998.22;;;11.02;99.46
69751;BME280;57335;52.288;6.056;2022-09-16T05:08:59;101009.50;;;11.09;99.48
69751;BME280;57335;52.288;6.056;2022-09-16T05:11:28;100999.59;;;11.11;99.72
69751;BME280;57335;52.288;6.056;2022-09-16T05:13:59;100996.56;;;11.14;100.00
69751;BME280;57335;52.288;6.056;2022-09-16T05:16:26;100966.34;;;11.05;100.00
69751;BME280;57335;52.288;6.056;2022-09-16T05:18:55;100973.38;;;11.11;99.21
69751;BME280;57335;52.288;6.056;2022-09-16T05:21:23;100982.66;;;11.13;99.05
69751;BME280;57335;52.288;6.056;2022-09-16T05:23:51;100982.44;;;11.08;98.26
69751;BME280;57335;52.288;6.056;2022-09-16T05:26:21;100981.69;;;11.01;97.72
69751;BME280;57335;52.288;6.056;2022-09-16T05:28:47;100968.97;;;10.91;97.45
69751;BME280;57335;52.288;6.056;2022-09-16T05:31:17;100980.47;;;10.90;97.07
69751;BME280;57335;52.288;6.056;2022-09-16T05:33:51;100985.53;;;10.85;97.44
69751;BME280;57335;52.288;6.056;2022-09-16T05:36:18;100976.69;;;10.73;97.39
69751;BME280;57335;52.288;6.056;2022-09-16T05:38:44;100994.00;;;10.74;97.67
69751;BME280;57335;52.288;6.056;2022-09-16T05:41:31;100998.66;;;10.72;97.86
69751;BME280;57335;52.288;6.056;2022-09-16T05:43:58;101004.88;;;10.84;98.18
69751;BME280;57335;52.288;6.056;2022-09-16T05:46:25;101003.63;;;11.13;98.32
69751;BME280;57335;52.288;6.056;2022-09-16T05:48:52;101013.00;;;11.48;97.10
69751;BME280;57335;52.288;6.056;2022-09-16T05:51:21;101012.69;;;11.76;94.70
69751;BME280;57335;52.288;6.056;2022-09-16T05:53:48;101001.75;;;11.86;93.80
69751;BME280;57335;52.288;6.056;2022-09-16T05:56:17;101026.94;;;12.00;91.51
69751;BME280;57335;52.288;6.056;2022-09-16T05:58:44;101022.97;;;11.91;92.48
69751;BME280;57335;52.288;6.056;2022-09-16T06:01:11;101038.72;;;11.91;93.24
69751;BME280;57335;52.288;6.056;2022-09-16T06:03:40;101019.75;;;11.82;93.95
69751;BME280;57335;52.288;6.056;2022-09-16T06:06:12;101007.44;;;11.76;94.52
69751;BME280;57335;52.288;6.056;2022-09-16T06:08:40;101009.81;;;11.84;94.31
69751;BME280;57335;52.288;6.056;2022-09-16T06:11:09;101000.59;;;11.75;94.57
69751;BME280;57335;52.288;6.056;2022-09-16T06:13:36;100995.00;;;11.65;94.42
69751;BME280;57335;52.288;6.056;2022-09-16T06:16:05;101013.34;;;11.71;94.38
69751;BME280;57335;52.288;6.056;2022-09-16T06:18:32;101019.22;;;11.67;93.92
69751;BME280;57335;52.288;6.056;2022-09-16T06:21:06;101015.59;;;11.61;93.88
69751;BME280;57335;52.288;6.056;2022-09-16T06:23:33;101006.94;;;11.54;93.91
69751;BME280;57335;52.288;6.056;2022-09-16T06:26:01;101003.31;;;11.55;94.75
69751;BME280;57335;52.288;6.056;2022-09-16T06:28:28;101003.66;;;11.65;95.32
69751;BME280;57335;52.288;6.056;2022-09-16T06:31:07;101005.97;;;11.93;94.55
69751;BME280;57335;52.288;6.056;2022-09-16T06:33:34;101011.09;;;12.45;94.66
69751;BME280;57335;52.288;6.056;2022-09-16T06:36:05;101001.59;;;13.13;93.58
69751;BME280;57335;52.288;6.056;2022-09-16T06:38:32;101006.41;;;14.02;89.95
69751;BME280;57335;52.288;6.056;2022-09-16T06:41:00;101002.66;;;14.87;84.07
69751;BME280;57335;52.288;6.056;2022-09-16T06:43:27;101007.09;;;15.74;81.59
69751;BME280;57335;52.288;6.056;2022-09-16T06:46:08;100986.09;;;16.47;74.91
69751;BME280;57335;52.288;6.056;2022-09-16T06:48:34;100990.75;;;17.12;74.73
69751;BME280;57335;52.288;6.056;2022-09-16T06:51:09;101002.53;;;17.71;69.83
69751;BME280;57335;52.288;6.056;2022-09-16T06:53:36;100992.63;;;18.16;68.27
69751;BME280;57335;52.288;6.056;2022-09-16T06:56:05;100989.81;;;18.65;69.90
69751;BME280;57335;52.288;6.056;2022-09-16T06:58:33;100992.66;;;18.96;67.69
69751;BME280;57335;52.288;6.056;2022-09-16T07:01:04;100991.16;;;19.20;65.71
69751;BME280;57335;52.288;6.056;2022-09-16T07:03:31;101000.31;;;19.60;65.24
69751;BME280;57335;52.288;6.056;2022-09-16T07:05:58;100979.16;;;19.91;62.24
69751;BME280;57335;52.288;6.056;2022-09-16T07:08:27;100994.84;;;20.39;63.02
69751;BME280;57335;52.288;6.056;2022-09-16T07:11:00;100986.56;;;20.71;59.50
69751;BME280;57335;52.288;6.056;2022-09-16T07:13:27;100995.19;;;21.12;60.33
69751;BME280;57335;52.288;6.056;2022-09-16T07:16:08;100992.63;;;21.57;56.85
69751;BME280;57335;52.288;6.056;2022-09-16T07:18:39;100993.81;;;22.15;57.38
69751;BME280;57335;52.288;6.056;2022-09-16T07:21:13;101005.63;;;22.67;55.46
69751;BME280;57335;52.288;6.056;2022-09-16T07:23:40;101003.09;;;23.05;54.56
69751;BME280;57335;52.288;6.056;2022-09-16T07:26:15;101006.97;;;22.94;51.23
69751;BME280;57335;52.288;6.056;2022-09-16T07:28:43;101007.22;;;22.44;53.20
69751;BME280;57335;52.288;6.056;2022-09-16T07:31:11;101009.50;;;21.87;53.92
69751;BME280;57335;52.288;6.056;2022-09-16T07:33:40;101013.84;;;21.18;54.75
69751;BME280;57335;52.288;6.056;2022-09-16T07:36:08;101013.72;;;20.52;56.45
69751;BME280;57335;52.288;6.056;2022-09-16T07:38:35;100995.63;;;19.83;57.81
69751;BME280;57335;52.288;6.056;2022-09-16T07:41:07;101002.94;;;19.35;60.45
69751;BME280;57335;52.288;6.056;2022-09-16T07:43:34;101004.94;;;19.12;62.04
69751;BME280;57335;52.288;6.056;2022-09-16T07:46:00;101007.19;;;19.46;62.70
69751;BME280;57335;52.288;6.056;2022-09-16T07:48:30;101009.47;;;19.85;61.90
69751;BME280;57335;52.288;6.056;2022-09-16T07:51:03;101008.41;;;20.37;59.80
69751;BME280;57335;52.288;6.056;2022-09-16T07:53:31;101012.06;;;20.98;59.58
69751;BME280;57335;52.288;6.056;2022-09-16T07:56:03;101018.47;;;21.57;56.47
69751;BME280;57335;52.288;6.056;2022-09-16T07:58:30;101018.03;;;21.89;55.89
69751;BME280;57335;52.288;6.056;2022-09-16T08:00:56;101022.06;;;22.21;55.45
69751;BME280;57335;52.288;6.056;2022-09-16T08:03:30;101018.09;;;22.77;54.33
69751;BME280;57335;52.288;6.056;2022-09-16T08:06:11;101017.47;;;23.33;52.47
69751;BME280;57335;52.288;6.056;2022-09-16T08:08:37;101013.59;;;23.63;47.65
69751;BME280;57335;52.288;6.056;2022-09-16T08:11:05;101029.00;;;24.09;50.08
69751;BME280;57335;52.288;6.056;2022-09-16T08:13:33;101042.94;;;24.06;49.65
69751;BME280;57335;52.288;6.056;2022-09-16T08:16:05;101040.31;;;23.25;47.10
69751;BME280;57335;52.288;6.056;2022-09-16T08:18:32;101038.59;;;22.23;49.84
69751;BME280;57335;52.288;6.056;2022-09-16T08:21:04;101038.09;;;21.16;50.64
69751;BME280;57335;52.288;6.056;2022-09-16T08:23:31;101037.69;;;20.32;54.36
69751;BME280;57335;52.288;6.056;2022-09-16T08:25:58;101031.44;;;19.60;58.14
69751;BME280;57335;52.288;6.056;2022-09-16T08:28:26;101036.25;;;19.63;58.89
69751;BME280;57335;52.288;6.056;2022-09-16T08:31:12;101027.97;;;19.64;58.40
69751;BME280;57335;52.288;6.056;2022-09-16T08:33:40;101027.53;;;19.72;56.39
69751;BME280;57335;52.288;6.056;2022-09-16T08:36:15;101029.69;;;19.96;58.38
69751;BME280;57335;52.288;6.056;2022-09-16T08:38:43;101017.19;;;20.48;58.62
69751;BME280;57335;52.288;6.056;2022-09-16T08:46:36;101023.41;;;22.82;52.18
69751;BME280;57335;52.288;6.056;2022-09-16T08:49:17;101018.41;;;23.23;50.54
69751;BME280;57335;52.288;6.056;2022-09-16T08:51:45;101022.75;;;23.76;48.54
69751;BME280;57335;52.288;6.056;2022-09-16T08:56:53;101026.38;;;24.04;47.44
69751;BME280;57335;52.288;6.056;2022-09-16T08:59:23;101018.72;;;23.98;47.02
69751;BME280;57335;52.288;6.056;2022-09-16T09:02:18;101030.22;;;23.79;45.71
69751;BME280;57335;52.288;6.056;2022-09-16T09:04:47;101017.69;;;23.37;47.03
69751;BME280;57335;52.288;6.056;2022-09-16T09:10:03;101018.81;;;23.12;48.72
69751;BME280;57335;52.288;6.056;2022-09-16T09:12:38;101026.09;;;23.06;48.42
69751;BME280;57335;52.288;6.056;2022-09-16T09:15:27;101019.97;;;23.24;48.73
69751;BME280;57335;52.288;6.056;2022-09-16T09:18:09;101026.22;;;23.39;48.46
69751;BME280;57335;52.288;6.056;2022-09-16T09:26:51;101031.47;;;23.87;47.92
69751;BME280;57335;52.288;6.056;2022-09-16T09:29:39;101027.63;;;23.93;46.38
69751;BME280;57335;52.288;6.056;2022-09-16T09:36:08;101029.78;;;23.72;46.66
69751;BME280;57335;52.288;6.056;2022-09-16T09:38:46;101014.38;;;23.64;47.04
69751;BME280;57335;52.288;6.056;2022-09-16T09:42:11;101029.56;;;23.68;46.11
69751;BME280;57335;52.288;6.056;2022-09-16T09:44:40;101057.00;;;23.36;43.86
69751;BME280;57335;52.288;6.056;2022-09-16T09:47:12;101097.84;;;20.43;43.09
69751;BME280;57335;52.288;6.056;2022-09-16T09:49:54;101103.47;;;17.47;52.13
69751;BME280;57335;52.288;6.056;2022-09-16T09:52:34;101086.69;;;16.06;59.73
69751;BME280;57335;52.288;6.056;2022-09-16T09:55:15;101076.94;;;15.54;61.88
69751;BME280;57335;52.288;6.056;2022-09-16T09:58:13;101069.19;;;15.12;63.80
69751;BME280;57335;52.288;6.056;2022-09-16T10:00:41;101074.00;;;14.92;66.97
69751;BME280;57335;52.288;6.056;2022-09-16T10:03:13;101069.75;;;14.79;66.29
69751;BME280;57335;52.288;6.056;2022-09-16T10:05:40;101069.28;;;14.70;66.95
69751;BME280;57335;52.288;6.056;2022-09-16T10:08:28;101060.56;;;14.70;70.50
69751;BME280;57335;52.288;6.056;2022-09-16T10:10:57;101053.69;;;14.69;70.08
69751;BME280;57335;52.288;6.056;2022-09-16T10:13:26;101053.47;;;14.82;68.90
69751;BME280;57335;52.288;6.056;2022-09-16T10:16:05;101061.75;;;14.98;72.56
69751;BME280;57335;52.288;6.056;2022-09-16T10:18:32;101068.25;;;15.30;72.15
69751;BME280;57335;52.288;6.056;2022-09-16T10:21:13;101055.22;;;15.64;74.07
69751;BME280;57335;52.288;6.056;2022-09-16T10:23:40;101057.56;;;15.89;70.03
69751;BME280;57335;52.288;6.056;2022-09-16T10:26:21;101048.19;;;16.10;69.65
69751;BME280;57335;52.288;6.056;2022-09-16T10:29:16;101049.00;;;16.45;69.05
69751;BME280;57335;52.288;6.056;2022-09-16T10:31:43;101048.06;;;16.85;65.06
69751;BME280;57335;52.288;6.056;2022-09-16T10:36:58;101076.22;;;16.74;65.58
69751;BME280;57335;52.288;6.056;2022-09-16T10:39:26;101072.06;;;15.87;67.44
69751;BME280;57335;52.288;6.056;2022-09-16T10:41:53;101076.69;;;15.68;71.01
69751;BME280;57335;52.288;6.056;2022-09-16T10:44:28;101058.59;;;15.48;70.21
69751;BME280;57335;52.288;6.056;2022-09-16T10:47:15;101069.28;;;15.29;71.72
69751;BME280;57335;52.288;6.056;2022-09-16T10:49:49;101065.25;;;14.56;71.62
69751;BME280;57335;52.288;6.056;2022-09-16T10:52:21;101061.00;;;13.64;74.59
69751;BME280;57335;52.288;6.056;2022-09-16T10:54:48;101058.53;;;13.07;78.24
69751;BME280;57335;52.288;6.056;2022-09-16T10:57:20;101047.31;;;12.93;79.62
69751;BME280;57335;52.288;6.056;2022-09-16T11:02:40;101057.50;;;12.58;82.15
69751;BME280;57335;52.288;6.056;2022-09-16T11:08:11;101082.47;;;12.49;85.16
69751;BME280;57335;52.288;6.056;2022-09-16T11:14:02;101041.31;;;12.61;86.83
69751;BME280;57335;52.288;6.056;2022-09-16T11:22:39;101057.56;;;13.64;89.83
69751;BME280;57335;52.288;6.056;2022-09-16T11:25:45;101054.28;;;13.99;89.12
69751;BME280;57335;52.288;6.056;2022-09-16T11:28:46;101054.25;;;14.29;85.88
69751;BME280;57335;52.288;6.056;2022-09-16T11:37:22;101039.75;;;15.56;84.59
69751;BME280;57335;52.288;6.056;2022-09-16T11:42:31;101048.34;;;16.38;80.49
69751;BME280;57335;52.288;6.056;2022-09-16T11:45:15;101040.75;;;16.75;78.70
69751;BME280;57335;52.288;6.056;2022-09-16T11:56:16;101021.09;;;17.49;69.14
69751;BME280;57335;52.288;6.056;2022-09-16T11:58:54;101031.22;;;17.52;65.05
69751;BME280;57335;52.288;6.056;2022-09-16T12:01:43;101028.13;;;17.60;67.79
69751;BME280;57335;52.288;6.056;2022-09-16T12:04:30;101024.63;;;17.54;65.20
69751;BME280;57335;52.288;6.056;2022-09-16T12:07:17;101025.53;;;17.65;63.74
69751;BME280;57335;52.288;6.056;2022-09-16T12:10:04;101012.72;;;17.35;60.77
69751;BME280;57335;52.288;6.056;2022-09-16T12:12:36;101014.59;;;16.95;58.52
69751;BME280;57335;52.288;6.056;2022-09-16T12:15:04;101022.41;;;16.85;64.89
69751;BME280;57335;52.288;6.056;2022-09-16T12:17:34;101023.28;;;16.74;68.04
69751;BME280;57335;52.288;6.056;2022-09-16T12:20:15;101029.53;;;16.51;67.98
69751;BME280;57335;52.288;6.056;2022-09-16T12:22:47;101020.44;;;16.13;68.58
69751;BME280;57335;52.288;6.056;2022-09-16T12:25:24;101016.47;;;15.82;72.37
69751;BME280;57335;52.288;6.056;2022-09-16T12:28:06;101019.75;;;15.89;73.22
69751;BME280;57335;52.288;6.056;2022-09-16T12:30:41;101022.53;;;16.11;72.97
69751;BME280;57335;52.288;6.056;2022-09-16T12:33:24;101001.53;;;16.21;73.61
69751;BME280;57335;52.288;6.056;2022-09-16T12:36:04;101014.03;;;16.60;73.26
69751;BME280;57335;52.288;6.056;2022-09-16T12:38:31;101018.84;;;16.80;69.59
69751;BME280;57335;52.288;6.056;2022-09-16T12:47:18;101009.28;;;17.34;67.74
69751;BME280;57335;52.288;6.056;2022-09-16T12:55:29;101018.31;;;17.17;59.51
69751;BME280;57335;52.288;6.056;2022-09-16T13:00:57;101019.63;;;17.14;58.82
69751;BME280;57335;52.288;6.056;2022-09-16T13:03:33;101010.38;;;17.39;62.66
69751;BME280;57335;52.288;6.056;2022-09-16T13:06:13;101002.06;;;17.52;63.02
69751;BME280;57335;52.288;6.056;2022-09-16T13:08:44;101021.44;;;17.80;60.93
69751;BME280;57335;52.288;6.056;2022-09-16T13:11:24;101009.59;;;17.16;57.30
69751;BME280;57335;52.288;6.056;2022-09-16T13:14:22;101019.19;;;17.00;60.62
69751;BME280;57335;52.288;6.056;2022-09-16T13:16:55;101015.47;;;17.01;61.04
69751;BME280;57335;52.288;6.056;2022-09-16T13:19:28;101013.06;;;17.00;59.92
69751;BME280;57335;52.288;6.056;2022-09-16T13:22:28;101011.69;;;17.14;61.23
69751;BME280;57335;52.288;6.056;2022-09-16T13:25:21;101013.47;;;17.30;60.28
69751;BME280;57335;52.288;6.056;2022-09-16T13:28:02;101012.41;;;17.31;57.60
69751;BME280;57335;52.288;6.056;2022-09-16T13:30:31;101005.13;;;17.44;57.04
69751;BME280;57335;52.288;6.056;2022-09-16T13:33:02;101014.00;;;17.54;59.39
69751;BME280;57335;52.288;6.056;2022-09-16T13:35:37;100999.91;;;17.49;64.90
69751;BME280;57335;52.288;6.056;2022-09-16T13:40:53;101009.66;;;16.48;59.60
69751;BME280;57335;52.288;6.056;2022-09-16T13:43:35;101006.53;;;16.34;61.44
69751;BME280;57335;52.288;6.056;2022-09-16T13:46:05;101007.31;;;16.35;60.55
69751;BME280;57335;52.288;6.056;2022-09-16T13:48:41;101000.81;;;16.60;62.84
69751;BME280;57335;52.288;6.056;2022-09-16T13:51:16;100986.72;;;16.71;60.10
69751;BME280;57335;52.288;6.056;2022-09-16T13:53:46;101014.66;;;15.99;65.11
69751;BME280;57335;52.288;6.056;2022-09-16T13:56:26;101000.91;;;16.14;68.15
69751;BME280;57335;52.288;6.056;2022-09-16T14:02:13;101004.09;;;15.30;71.21
69751;BME280;57335;52.288;6.056;2022-09-16T14:05:03;100996.44;;;15.05;71.22
69751;BME280;57335;52.288;6.056;2022-09-16T14:13:20;101002.53;;;14.70;69.28
69751;BME280;57335;52.288;6.056;2022-09-16T14:15:49;101011.47;;;14.69;67.41
69751;BME280;57335;52.288;6.056;2022-09-16T14:18:23;101004.22;;;14.52;65.87
69751;BME280;57335;52.288;6.056;2022-09-16T14:21:04;101010.69;;;14.68;68.96
69751;BME280;57335;52.288;6.056;2022-09-16T14:23:32;101001.06;;;14.74;68.00
69751;BME280;57335;52.288;6.056;2022-09-16T14:26:12;100994.16;;;14.96;67.71
69751;BME280;57335;52.288;6.056;2022-09-16T14:28:39;101004.47;;;15.10;66.40
69751;BME280;57335;52.288;6.056;2022-09-16T14:31:16;101029.00;;;15.22;68.47
69751;BME280;57335;52.288;6.056;2022-09-16T14:33:53;101027.06;;;14.59;72.34
69751;BME280;57335;52.288;6.056;2022-09-16T14:36:25;101007.41;;;14.43;72.65
69751;BME280;57335;52.288;6.056;2022-09-16T14:38:57;100999.69;;;14.18;75.37
69751;BME280;57335;52.288;6.056;2022-09-16T14:41:38;101006.78;;;14.05;80.14
69751;BME280;57335;52.288;6.056;2022-09-16T14:44:19;101002.06;;;14.07;78.40
69751;BME280;57335;52.288;6.056;2022-09-16T14:49:35;101010.25;;;14.41;79.48
69751;BME280;57335;52.288;6.056;2022-09-16T14:52:02;101006.41;;;14.55;79.38
69751;BME280;57335;52.288;6.056;2022-09-16T14:54:30;101005.28;;;14.63;77.56
69751;BME280;57335;52.288;6.056;2022-09-16T14:59:35;100997.13;;;14.65;75.90
69751;BME280;57335;52.288;6.056;2022-09-16T15:02:07;100996.78;;;14.61;73.60
69751;BME280;57335;52.288;6.056;2022-09-16T15:04:39;100996.91;;;14.66;73.40
69751;BME280;57335;52.288;6.056;2022-09-16T15:07:22;100996.56;;;14.63;66.83
69751;BME280;57335;52.288;6.056;2022-09-16T15:09:55;101004.34;;;14.81;70.34
69751;BME280;57335;52.288;6.056;2022-09-16T15:12:45;100989.78;;;14.90;67.33
69751;BME280;57335;52.288;6.056;2022-09-16T15:15:20;100992.19;;;15.04;69.01